createdAt,value
2019-04-25T00:01:38.295Z,78.66
2019-04-25T00:04:11.726Z,78.54
2019-04-25T00:06:44.928Z,78.83
2019-04-25T00:09:17.535Z,78.86
2019-04-25T00:11:49.733Z,79.07
2019-04-25T00:14:22.546Z,79.39
2019-04-25T00:16:55.150Z,79.56
2019-04-25T00:19:27.379Z,79.09
2019-04-25T00:21:59.620Z,79.90
2019-04-25T00:24:32.114Z,79.58
2019-04-25T00:27:04.381Z,79.39
2019-04-25T00:29:36.669Z,78.83
2019-04-25T00:32:08.943Z,80.04
2019-04-25T00:34:43.564Z,79.73
2019-04-25T00:37:15.181Z,79.53
2019-04-25T00:39:49.086Z,79.41
2019-04-25T00:42:23.111Z,79.06
2019-04-25T00:44:55.540Z,79.67
2019-04-25T00:47:27.772Z,79.25
2019-04-25T00:50:00.109Z,79.80
2019-04-25T00:52:34.587Z,79.77
2019-04-25T00:55:06.656Z,79.34
2019-04-25T00:57:38.913Z,79.80
2019-04-25T01:00:12.194Z,79.70
2019-04-25T01:02:45.296Z,79.87
2019-04-25T01:05:17.702Z,79.96
2019-04-25T01:07:50.020Z,80.08
2019-04-25T01:10:23.106Z,79.92
2019-04-25T01:12:55.527Z,79.71
2019-04-25T01:15:27.744Z,80.24
2019-04-25T01:18:01.199Z,80.42
2019-04-25T01:20:34.482Z,80.18
2019-04-25T01:23:06.901Z,80.38
2019-04-25T01:25:42.540Z,80.45
2019-04-25T01:28:13.294Z,80.43
2019-04-25T01:30:46.353Z,80.23
2019-04-25T01:33:19.006Z,80.46
2019-04-25T01:38:43.276Z,80.82
2019-04-25T01:41:15.669Z,80.51
2019-04-25T01:43:48.760Z,80.44
2019-04-25T01:46:21.989Z,80.23
2019-04-25T01:48:55.364Z,80.65
2019-04-25T01:51:27.894Z,80.48
2019-04-25T01:54:00.313Z,80.75
2019-04-25T01:56:33.294Z,80.34
2019-04-25T01:59:05.901Z,80.82
2019-04-25T02:01:38.121Z,80.89
2019-04-25T02:04:10.335Z,80.55
2019-04-25T02:06:43.325Z,80.74
2019-04-25T02:09:15.811Z,81.34
2019-04-25T02:11:51.100Z,81.00
2019-04-25T02:14:29.940Z,80.88
2019-04-25T02:17:04.515Z,81.11
2019-04-25T02:19:36.902Z,81.25
2019-04-25T02:22:09.135Z,81.26
2019-04-25T02:24:41.388Z,81.04
2019-04-25T02:27:13.675Z,81.09
2019-04-25T02:29:46.104Z,81.58
2019-04-25T02:32:18.324Z,81.53
2019-04-25T02:34:51.632Z,81.07
2019-04-25T02:37:25.579Z,81.04
2019-04-25T02:40:00.035Z,80.95
2019-04-25T02:42:34.225Z,81.26
2019-04-25T02:45:08.161Z,81.45
2019-04-25T02:47:39.579Z,81.55
2019-04-25T02:50:11.842Z,81.53
2019-04-25T02:52:44.444Z,81.77
2019-04-25T02:55:31.164Z,81.62
2019-04-25T02:57:50.722Z,81.41
2019-04-25T03:00:24.852Z,81.87
2019-04-25T03:02:57.924Z,81.60
2019-04-25T03:05:35.502Z,81.51
2019-04-25T03:08:10.321Z,81.36
2019-04-25T03:10:41.135Z,81.46
2019-04-25T03:13:14.819Z,81.62
2019-04-25T03:15:47.312Z,81.20
2019-04-25T03:18:19.572Z,81.60
2019-04-25T03:20:51.795Z,81.78
2019-04-25T03:23:24.496Z,81.26
2019-04-25T03:25:56.987Z,81.63
2019-04-25T03:28:29.265Z,81.50
2019-04-25T03:31:02.304Z,81.33
2019-04-25T03:33:38.236Z,81.55
2019-04-25T03:36:09.449Z,81.42
2019-04-25T03:38:41.689Z,81.50
2019-04-25T03:41:14.775Z,81.60
2019-04-25T03:43:47.215Z,81.35
2019-04-25T03:46:19.421Z,81.75
2019-04-25T03:48:51.737Z,81.70
2019-04-25T03:51:24.136Z,81.41
2019-04-25T03:53:57.442Z,81.06
2019-04-25T03:56:29.779Z,80.20
2019-04-25T03:59:02.700Z,79.88
2019-04-25T04:01:35.957Z,79.70
2019-04-25T04:04:09.027Z,79.36
2019-04-25T04:06:41.483Z,79.77
2019-04-25T04:09:14.301Z,80.01
2019-04-25T04:11:47.367Z,79.69
2019-04-25T04:14:19.573Z,79.81
2019-04-25T04:16:51.796Z,78.76
2019-04-25T04:19:26.320Z,78.19
2019-04-25T04:21:58.529Z,78.44
2019-04-25T04:24:30.766Z,77.54
2019-04-25T04:27:04.251Z,78.28
2019-04-25T04:29:36.932Z,77.94
2019-04-25T04:32:09.207Z,77.47
2019-04-25T04:34:41.398Z,78.03
2019-04-25T04:37:14.827Z,77.44
2019-04-25T04:39:47.773Z,76.87
2019-04-25T04:42:20.000Z,76.99
2019-04-25T04:44:53.833Z,77.58
2019-04-25T04:47:26.132Z,76.99
2019-04-25T04:49:58.331Z,76.72
2019-04-25T04:52:30.571Z,76.89
2019-04-25T04:55:08.352Z,75.92
2019-04-25T04:57:36.768Z,75.31
2019-04-25T05:00:09.198Z,74.96
2019-04-25T05:02:43.259Z,74.67
2019-04-25T05:05:15.958Z,74.87
2019-04-25T05:07:48.326Z,74.29
2019-04-25T05:10:20.604Z,74.21
2019-04-25T05:12:53.293Z,74.40
2019-04-25T05:15:25.704Z,74.51
2019-04-25T05:17:57.930Z,73.19
2019-04-25T05:20:30.137Z,72.36
2019-04-25T05:23:03.161Z,71.81
2019-04-25T05:25:35.486Z,72.10
2019-04-25T05:28:07.704Z,72.58
2019-04-25T05:30:39.937Z,71.90
2019-04-25T05:33:14.442Z,71.61
2019-04-25T05:35:47.202Z,70.26
2019-04-25T05:38:20.134Z,70.44
2019-04-25T05:40:53.889Z,70.73
2019-04-25T05:43:26.518Z,70.74
2019-04-25T05:45:58.781Z,71.41
2019-04-25T05:48:32.088Z,71.49
2019-04-25T05:51:04.430Z,71.47
2019-04-25T05:53:36.695Z,72.68
2019-04-25T05:56:08.886Z,71.04
2019-04-25T05:58:41.193Z,71.59
2019-04-25T06:01:13.514Z,71.23
2019-04-25T06:03:45.813Z,72.20
2019-04-25T06:06:19.215Z,71.00
2019-04-25T06:08:51.488Z,71.49
2019-04-25T06:11:25.031Z,70.12
2019-04-25T06:14:00.160Z,70.45
2019-04-25T06:16:33.218Z,71.48
2019-04-25T06:19:13.247Z,71.08
2019-04-25T06:21:39.778Z,70.72
2019-04-25T06:24:13.316Z,69.65
2019-04-25T06:26:46.786Z,70.59
2019-04-25T06:29:19.715Z,70.13
2019-04-25T06:32:05.378Z,69.32
2019-04-25T06:34:28.360Z,69.14
2019-04-25T06:37:02.443Z,67.95
2019-04-25T06:39:34.718Z,68.08
2019-04-25T06:42:07.381Z,67.72
2019-04-25T06:44:39.614Z,67.08
2019-04-25T06:47:13.030Z,66.96
2019-04-25T06:49:46.362Z,66.51
2019-04-25T06:52:18.571Z,66.54
2019-04-25T06:54:50.825Z,65.33
2019-04-25T06:57:24.145Z,64.03
2019-04-25T06:59:56.997Z,64.83
2019-04-25T07:02:29.289Z,63.37
2019-04-25T07:05:01.556Z,62.98
2019-04-25T07:07:35.060Z,62.18
2019-04-25T07:10:07.473Z,61.20
2019-04-25T07:12:40.802Z,61.34
2019-04-25T07:15:13.810Z,59.42
2019-04-25T07:17:46.116Z,60.41
2019-04-25T07:20:18.369Z,59.77
2019-04-25T07:22:50.584Z,60.52
2019-04-25T07:25:26.013Z,61.29
2019-04-25T07:27:58.756Z,60.87
2019-04-25T07:30:45.441Z,61.93
2019-04-25T07:33:05.050Z,61.91
2019-04-25T07:35:37.277Z,61.64
2019-04-25T07:38:09.570Z,63.09
2019-04-25T07:40:43.257Z,62.78
2019-04-25T07:43:15.708Z,64.05
2019-04-25T07:45:48.001Z,63.64
2019-04-25T07:48:22.661Z,62.94
2019-04-25T07:50:55.969Z,63.52
2019-04-25T07:53:30.236Z,64.53
2019-04-25T07:56:02.278Z,63.52
2019-04-25T07:58:45.456Z,64.08
2019-04-25T08:01:08.604Z,63.39
2019-04-25T08:03:40.822Z,62.45
2019-04-25T08:06:13.803Z,63.12
2019-04-25T08:08:46.153Z,63.61
2019-04-25T08:11:18.716Z,62.73
2019-04-25T08:13:50.969Z,61.89
2019-04-25T08:16:23.386Z,62.76
2019-04-25T08:18:55.622Z,61.47
2019-04-25T08:21:27.889Z,60.88
2019-04-25T08:24:00.153Z,60.28
2019-04-25T08:26:35.047Z,59.87
2019-04-25T08:29:07.628Z,58.24
2019-04-25T08:31:40.150Z,57.35
2019-04-25T08:34:14.325Z,58.32
2019-04-25T08:36:46.713Z,56.30
2019-04-25T08:39:19.030Z,56.70
2019-04-25T08:41:51.253Z,56.49
2019-04-25T08:44:24.168Z,56.73
2019-04-25T08:46:56.533Z,55.72
2019-04-25T08:49:28.992Z,55.52
2019-04-25T08:52:01.642Z,55.94
2019-04-25T08:54:36.393Z,55.62
2019-04-25T08:57:07.947Z,54.64
2019-04-25T08:59:44.756Z,52.81
2019-04-25T09:02:14.130Z,53.55
2019-04-25T09:04:46.410Z,53.32
2019-04-25T09:07:18.667Z,52.42
2019-04-25T09:09:50.873Z,53.63
2019-04-25T09:12:23.997Z,52.72
2019-04-25T09:14:56.504Z,51.59
2019-04-25T09:17:28.572Z,49.93
2019-04-25T09:20:01.028Z,51.32
2019-04-25T09:22:36.106Z,50.59
2019-04-25T09:25:07.498Z,50.34
2019-04-25T09:27:41.715Z,49.25
2019-04-25T09:30:14.360Z,49.76
2019-04-25T09:32:46.781Z,48.95
2019-04-25T09:35:20.236Z,48.04
2019-04-25T09:37:54.746Z,49.09
2019-04-25T09:40:26.993Z,49.01
2019-04-25T09:42:59.209Z,48.50
2019-04-25T09:45:31.452Z,48.59
2019-04-25T09:48:04.697Z,48.83
2019-04-25T09:50:38.211Z,48.25
2019-04-25T09:53:21.041Z,48.48
2019-04-25T09:55:47.226Z,48.72
2019-04-25T09:58:18.761Z,48.85
2019-04-25T10:00:51.063Z,48.29
2019-04-25T10:03:23.425Z,49.50
2019-04-25T10:05:55.814Z,49.43
2019-04-25T10:08:28.086Z,48.94
2019-04-25T10:11:00.353Z,48.76
2019-04-25T10:13:33.721Z,48.58
2019-04-25T10:16:06.191Z,49.18
2019-04-25T10:18:39.230Z,47.47
2019-04-25T10:21:11.701Z,47.19
2019-04-25T10:23:45.352Z,47.46
2019-04-25T10:26:17.955Z,46.38
2019-04-25T10:28:50.202Z,46.94
2019-04-25T10:31:23.752Z,47.97
2019-04-25T10:33:56.500Z,47.15
2019-04-25T10:36:28.749Z,46.87
2019-04-25T10:39:07.892Z,45.82
2019-04-25T10:41:36.668Z,45.27
2019-04-25T10:44:08.964Z,46.11
2019-04-25T10:46:41.774Z,43.94
2019-04-25T10:49:14.554Z,43.72
2019-04-25T10:51:48.074Z,44.19
2019-04-25T10:54:20.222Z,43.47
2019-04-25T10:56:52.453Z,43.21
2019-04-25T10:59:26.000Z,42.92
2019-04-25T11:01:58.353Z,43.11
2019-04-25T11:04:31.444Z,41.59
2019-04-25T11:07:03.838Z,41.45
2019-04-25T11:09:36.241Z,42.59
2019-04-25T11:12:08.515Z,41.33
2019-04-25T11:14:40.942Z,40.82
2019-04-25T11:17:15.425Z,42.21
2019-04-25T11:19:47.269Z,41.88
2019-04-25T11:22:19.534Z,41.90
2019-04-25T11:24:51.814Z,41.80
2019-04-25T11:27:24.194Z,40.87
2019-04-25T11:30:08.456Z,40.43
2019-04-25T11:32:30.417Z,41.05
2019-04-25T11:35:03.560Z,40.72
2019-04-25T11:37:36.260Z,40.32
2019-04-25T11:40:08.574Z,40.32
2019-04-25T11:42:41.852Z,38.25
2019-04-25T11:45:14.988Z,38.66
2019-04-25T11:47:48.333Z,38.35
2019-04-25T11:50:25.945Z,38.21
2019-04-25T11:52:58.857Z,37.80
2019-04-25T11:55:32.291Z,36.83
2019-04-25T11:58:04.689Z,37.33
2019-04-25T12:00:36.951Z,38.03
2019-04-25T12:03:09.166Z,38.92
2019-04-25T12:05:45.858Z,39.30
2019-04-25T12:08:17.370Z,38.39
2019-04-25T12:10:49.627Z,38.50
2019-04-25T12:13:24.147Z,37.94
2019-04-25T12:15:55.985Z,38.45
2019-04-25T12:18:28.273Z,39.23
2019-04-25T12:21:00.607Z,40.04
2019-04-25T12:23:33.974Z,40.39
2019-04-25T12:26:06.460Z,40.41
2019-04-25T12:28:38.709Z,40.89
2019-04-25T12:31:10.928Z,40.83
2019-04-25T12:33:46.365Z,42.55
2019-04-25T12:36:17.441Z,42.46
2019-04-25T12:38:49.684Z,42.34
2019-04-25T12:41:24.183Z,42.03
2019-04-25T12:43:56.536Z,41.26
2019-04-25T12:46:28.755Z,41.66
2019-04-25T12:49:01.016Z,42.58
2019-04-25T12:51:33.326Z,42.30
2019-04-25T12:54:06.628Z,42.50
2019-04-25T12:56:38.928Z,42.92
2019-04-25T12:59:11.117Z,42.24
2019-04-25T13:01:44.608Z,42.22
2019-04-25T13:04:16.894Z,43.78
2019-04-25T13:06:50.443Z,42.94
2019-04-25T13:09:23.150Z,44.27
2019-04-25T13:11:55.220Z,43.51
2019-04-25T13:14:27.518Z,44.49
2019-04-25T13:16:59.803Z,44.50
2019-04-25T13:19:32.026Z,45.09
2019-04-25T13:22:04.964Z,45.50
2019-04-25T13:24:37.215Z,46.85
2019-04-25T13:27:09.437Z,48.37
2019-04-25T13:29:43.286Z,48.62
2019-04-25T13:32:16.840Z,50.39
2019-04-25T13:34:49.086Z,51.91
2019-04-25T13:37:21.499Z,53.08
2019-04-25T13:39:54.127Z,53.59
2019-04-25T13:42:26.669Z,54.50
2019-04-25T13:44:58.890Z,56.03
2019-04-25T13:47:31.940Z,56.56
2019-04-25T13:50:04.186Z,58.11
2019-04-25T13:52:37.272Z,60.69
2019-04-25T13:55:09.488Z,62.63
2019-04-25T13:57:41.793Z,64.76
2019-04-25T14:00:14.254Z,66.74
2019-04-25T14:02:47.102Z,66.90
2019-04-25T14:05:20.298Z,67.88
2019-04-25T14:07:53.401Z,68.57
2019-04-25T14:10:26.511Z,69.64
2019-04-25T14:12:58.874Z,70.26
2019-04-25T14:15:31.168Z,70.56
2019-04-25T14:18:03.835Z,70.77
2019-04-25T14:20:36.271Z,71.58
2019-04-25T14:23:08.873Z,71.95
2019-04-25T14:25:41.075Z,72.45
2019-04-25T14:28:14.144Z,73.21
2019-04-25T14:30:46.681Z,73.43
2019-04-25T14:33:18.939Z,73.06
2019-04-25T14:35:51.117Z,72.94
2019-04-25T14:38:26.532Z,72.09
2019-04-25T14:41:00.326Z,72.61
2019-04-25T14:43:33.550Z,72.34
2019-04-25T14:46:06.030Z,73.19
2019-04-25T14:48:38.345Z,72.67
2019-04-25T14:51:12.820Z,73.11
2019-04-25T14:53:45.245Z,72.12
2019-04-25T14:56:17.509Z,71.20
2019-04-25T14:58:49.758Z,70.33
2019-04-25T15:01:24.478Z,70.74
2019-04-25T15:03:57.031Z,69.61
2019-04-25T15:06:29.724Z,69.87
2019-04-25T15:09:02.006Z,68.49
2019-04-25T15:11:36.017Z,68.51
2019-04-25T15:14:08.362Z,67.92
2019-04-25T15:16:40.741Z,67.66
2019-04-25T15:19:12.999Z,68.44
2019-04-25T15:21:47.262Z,67.75
2019-04-25T15:24:19.479Z,68.75
2019-04-25T15:26:52.045Z,68.69
2019-04-25T15:29:24.307Z,67.67
2019-04-25T15:31:56.768Z,68.34
2019-04-25T15:34:29.756Z,66.98
2019-04-25T15:37:02.016Z,66.72
2019-04-25T15:39:35.258Z,65.88
2019-04-25T15:42:07.758Z,65.87
2019-04-25T15:44:40.784Z,66.18
2019-04-25T15:47:13.031Z,66.70
2019-04-25T15:49:45.303Z,64.93
2019-04-25T15:52:17.512Z,61.58
2019-04-25T15:54:49.731Z,61.90
2019-04-25T15:57:22.520Z,60.57
2019-04-25T15:59:54.761Z,59.20
2019-04-25T16:02:27.760Z,59.23
2019-04-25T16:05:00.942Z,60.73
2019-04-25T16:07:33.777Z,62.03
2019-04-25T16:10:06.521Z,60.53
2019-04-25T16:12:39.444Z,62.35
2019-04-25T16:15:11.708Z,62.28
2019-04-25T16:17:43.991Z,62.13
2019-04-25T16:20:16.217Z,62.95
2019-04-25T16:22:48.588Z,61.93
2019-04-25T16:25:20.800Z,61.57
2019-04-25T16:27:53.046Z,61.19
2019-04-25T16:30:25.189Z,60.87
2019-04-25T16:32:57.603Z,60.53
2019-04-25T16:35:31.031Z,61.74
2019-04-25T16:38:03.362Z,61.40
2019-04-25T16:40:36.260Z,60.80
2019-04-25T16:43:08.662Z,59.33
2019-04-25T16:45:41.398Z,61.10
2019-04-25T16:48:13.789Z,58.62
2019-04-25T16:50:46.201Z,58.12
2019-04-25T16:53:18.507Z,57.09
2019-04-25T16:55:50.777Z,57.13
2019-04-25T16:58:23.395Z,56.15
2019-04-25T17:00:55.973Z,57.49
2019-04-25T17:03:28.973Z,56.74
2019-04-25T17:06:02.312Z,57.49
2019-04-25T17:08:35.395Z,56.66
2019-04-25T17:11:07.871Z,57.85
2019-04-25T17:13:40.261Z,57.97
2019-04-25T17:16:12.509Z,59.08
2019-04-25T17:18:44.771Z,58.39
2019-04-25T17:21:16.975Z,60.49
2019-04-25T17:23:49.211Z,60.20
2019-04-25T17:26:21.537Z,60.65
2019-04-25T17:28:53.791Z,60.79
2019-04-25T17:31:26.116Z,60.72
2019-04-25T17:33:58.248Z,61.83
2019-04-25T17:36:33.148Z,61.91
2019-04-25T17:39:04.569Z,61.79
2019-04-25T17:41:38.474Z,61.90
2019-04-25T17:44:10.712Z,61.78
2019-04-25T17:46:43.965Z,62.14
2019-04-25T17:49:16.477Z,62.63
2019-04-25T17:51:48.711Z,62.47
2019-04-25T17:54:20.971Z,62.13
2019-04-25T17:56:54.544Z,62.35
2019-04-25T17:59:26.813Z,62.20
2019-04-25T18:01:59.008Z,62.27
2019-04-25T18:04:31.252Z,62.82
2019-04-25T18:07:03.473Z,62.10
2019-04-25T18:09:36.732Z,62.32
2019-04-25T18:12:09.223Z,62.12
2019-04-25T18:14:41.432Z,62.99
2019-04-25T18:17:13.640Z,62.57
2019-04-25T18:19:45.911Z,62.84
2019-04-25T18:22:18.169Z,62.61
2019-04-25T18:24:50.413Z,62.63
2019-04-25T18:27:22.640Z,62.92
2019-04-25T18:29:54.890Z,62.81
2019-04-25T18:32:27.124Z,63.16
2019-04-25T18:34:59.383Z,63.10
2019-04-25T18:37:31.682Z,62.92
2019-04-25T18:40:03.925Z,63.63
2019-04-25T18:42:36.589Z,63.96
2019-04-25T18:45:09.106Z,63.59
2019-04-25T18:47:42.433Z,64.31
2019-04-25T18:50:14.816Z,63.69
2019-04-25T18:52:47.251Z,63.75
2019-04-25T18:55:19.657Z,63.76
2019-04-25T18:57:51.993Z,63.84
2019-04-25T19:00:25.518Z,63.73
2019-04-25T19:02:57.733Z,63.84
2019-04-25T19:05:29.945Z,63.89
2019-04-25T19:08:02.207Z,63.63
2019-04-25T19:10:36.567Z,64.07
2019-04-25T19:13:12.997Z,64.03
2019-04-25T19:15:43.098Z,63.81
2019-04-25T19:18:15.478Z,64.48
2019-04-25T19:20:48.120Z,64.79
2019-04-25T19:23:20.496Z,64.62
2019-04-25T19:25:53.021Z,64.62
2019-04-25T19:28:25.227Z,64.83
2019-04-25T19:30:57.556Z,66.25
2019-04-25T19:33:36.065Z,65.71
2019-04-25T19:36:03.717Z,65.75
2019-04-25T19:38:36.010Z,65.58
2019-04-25T19:41:08.224Z,64.28
2019-04-25T19:43:41.015Z,61.98
2019-04-25T19:46:13.314Z,60.75
2019-04-25T19:48:45.576Z,60.74
2019-04-25T19:51:17.840Z,61.00
2019-04-25T19:53:51.256Z,60.41
2019-04-25T19:56:23.629Z,60.80
2019-04-25T19:58:55.885Z,60.46
2019-04-25T20:01:28.107Z,60.70
2019-04-25T20:04:00.388Z,61.40
2019-04-25T20:06:32.662Z,62.96
2019-04-25T20:09:04.928Z,62.41
2019-04-25T20:11:38.739Z,61.59
2019-04-25T20:14:11.013Z,61.89
2019-04-25T20:16:44.597Z,61.66
2019-04-25T20:19:17.243Z,62.91
2019-04-25T20:21:50.024Z,62.35
2019-04-25T20:24:22.379Z,62.67
2019-04-25T20:26:54.681Z,62.85
2019-04-25T20:29:26.920Z,63.57
2019-04-25T20:31:59.147Z,63.29
2019-04-25T20:34:31.520Z,62.82
2019-04-25T20:37:03.788Z,62.56
2019-04-25T20:39:36.003Z,63.27
2019-04-25T20:42:08.217Z,62.14
2019-04-25T20:44:40.275Z,62.32
2019-04-25T20:47:12.607Z,62.41
2019-04-25T20:49:46.624Z,62.31
2019-04-25T20:52:18.979Z,62.36
2019-04-25T20:54:51.385Z,62.50
2019-04-25T20:57:23.620Z,63.26
2019-04-25T20:59:56.036Z,62.73
2019-04-25T21:02:33.833Z,62.62
2019-04-25T21:05:06.112Z,63.02
2019-04-25T21:07:40.691Z,63.30
2019-04-25T21:10:13.107Z,63.36
2019-04-25T21:12:45.381Z,62.83
2019-04-25T21:15:17.646Z,62.20
2019-04-25T21:17:49.864Z,62.66
2019-04-25T21:20:25.378Z,62.64
2019-04-25T21:22:57.894Z,62.57
2019-04-25T21:25:30.434Z,63.71
2019-04-25T21:28:03.751Z,62.40
2019-04-25T21:30:38.241Z,63.86
2019-04-25T21:33:10.638Z,62.53
2019-04-25T21:35:43.124Z,63.37
2019-04-25T21:38:15.719Z,62.47
2019-04-25T21:40:48.024Z,62.30
2019-04-25T21:43:20.569Z,63.15
2019-04-25T21:45:53.991Z,63.57
2019-04-25T21:48:29.305Z,62.25
2019-04-25T21:51:03.495Z,62.95
2019-04-25T21:53:35.792Z,63.70
2019-04-25T21:56:08.545Z,63.36
2019-04-25T21:58:40.890Z,63.50
2019-04-25T22:01:13.143Z,64.02
2019-04-25T22:03:45.872Z,63.06
2019-04-25T22:06:18.533Z,63.16
2019-04-25T22:08:50.911Z,63.81
2019-04-25T22:11:23.192Z,63.54
2019-04-25T22:13:56.609Z,63.49
2019-04-25T22:16:30.119Z,63.70
2019-04-25T22:19:02.748Z,62.84
2019-04-25T22:21:38.069Z,63.77
2019-04-25T22:24:13.707Z,63.83
2019-04-25T22:26:43.086Z,63.33
2019-04-25T22:29:15.730Z,63.66
2019-04-25T22:31:47.932Z,64.36
2019-04-25T22:34:20.203Z,64.62
2019-04-25T22:36:52.442Z,65.17
2019-04-25T22:39:24.773Z,65.05
2019-04-25T22:42:01.897Z,65.19
2019-04-25T22:44:34.571Z,65.17
2019-04-25T22:47:08.325Z,65.22
2019-04-25T22:49:41.745Z,65.35
2019-04-25T22:52:14.250Z,65.14
2019-04-25T22:54:46.441Z,64.60
2019-04-25T22:57:19.064Z,64.23
2019-04-25T22:59:51.307Z,64.53
2019-04-25T23:02:23.537Z,65.41
2019-04-25T23:05:05.361Z,64.98
2019-04-25T23:07:30.045Z,64.62
2019-04-25T23:10:03.425Z,64.66
2019-04-25T23:12:36.552Z,65.63
2019-04-25T23:15:08.901Z,65.14
2019-04-25T23:17:41.089Z,65.46
2019-04-25T23:20:14.991Z,65.75
2019-04-25T23:22:47.218Z,66.40
2019-04-25T23:25:19.891Z,66.35
2019-04-25T23:27:52.191Z,67.20
2019-04-25T23:30:24.852Z,67.64
2019-04-25T23:32:57.093Z,67.79
2019-04-25T23:35:30.042Z,67.46
2019-04-25T23:38:03.224Z,67.80
2019-04-25T23:40:35.484Z,68.09
2019-04-25T23:43:08.363Z,68.42
2019-04-25T23:45:40.562Z,67.87
2019-04-25T23:48:13.101Z,68.36
2019-04-25T23:50:45.305Z,68.28
2019-04-25T23:53:17.635Z,68.22
2019-04-25T23:55:49.967Z,68.33
2019-04-25T23:58:22.177Z,68.75
